sensor_id;sensor_type;location;lat;lon;timestamp;temperature;humidity
18682;DHT22;9471;51.168;4.154;2022-08-03T00:02:22;24.30;99.90
18682;DHT22;9471;51.168;4.154;2022-08-03T00:04:50;24.40;99.90
18682;DHT22;9471;51.168;4.154;2022-08-03T00:07:18;24.40;99.90
18682;DHT22;9471;51.168;4.154;2022-08-03T00:09:45;24.30;99.90
18682;DHT22;9471;51.168;4.154;2022-08-03T00:12:12;24.10;99.90
18682;DHT22;9471;51.168;4.154;2022-08-03T00:14:39;24.00;99.90
18682;DHT22;9471;51.168;4.154;2022-08-03T00:17:07;23.90;99.90
18682;DHT22;9471;51.168;4.154;2022-08-03T00:19:36;24.00;99.90
18682;DHT22;9471;51.168;4.154;2022-08-03T00:22:03;24.00;99.90
18682;DHT22;9471;51.168;4.154;2022-08-03T00:24:30;24.00;99.90
18682;DHT22;9471;51.168;4.154;2022-08-03T00:26:57;24.10;99.90
18682;DHT22;9471;51.168;4.154;2022-08-03T00:29:25;24.10;99.90
18682;DHT22;9471;51.168;4.154;2022-08-03T00:31:52;24.00;99.90
18682;DHT22;9471;51.168;4.154;2022-08-03T00:34:19;24.10;99.90
18682;DHT22;9471;51.168;4.154;2022-08-03T00:36:48;24.00;99.90
18682;DHT22;9471;51.168;4.154;2022-08-03T00:39:14;23.90;99.90
18682;DHT22;9471;51.168;4.154;2022-08-03T00:41:42;23.90;99.90
18682;DHT22;9471;51.168;4.154;2022-08-03T00:44:08;23.80;99.90
18682;DHT22;9471;51.168;4.154;2022-08-03T00:46:36;23.70;99.90
18682;DHT22;9471;51.168;4.154;2022-08-03T00:49:03;23.60;99.90
18682;DHT22;9471;51.168;4.154;2022-08-03T00:51:30;23.70;99.90
18682;DHT22;9471;51.168;4.154;2022-08-03T00:54:00;23.60;99.90
18682;DHT22;9471;51.168;4.154;2022-08-03T00:56:27;23.60;99.90
18682;DHT22;9471;51.168;4.154;2022-08-03T00:58:56;23.60;99.90
18682;DHT22;9471;51.168;4.154;2022-08-03T01:01:23;23.60;99.90
18682;DHT22;9471;51.168;4.154;2022-08-03T01:03:50;23.40;99.90
18682;DHT22;9471;51.168;4.154;2022-08-03T01:06:21;23.30;99.90
18682;DHT22;9471;51.168;4.154;2022-08-03T01:08:58;23.30;99.90
18682;DHT22;9471;51.168;4.154;2022-08-03T01:11:33;23.20;99.90
18682;DHT22;9471;51.168;4.154;2022-08-03T01:14:05;23.30;99.90
18682;DHT22;9471;51.168;4.154;2022-08-03T01:16:39;23.30;99.90
18682;DHT22;9471;51.168;4.154;2022-08-03T01:19:30;23.40;99.90
18682;DHT22;9471;51.168;4.154;2022-08-03T01:22:16;23.30;99.90
18682;DHT22;9471;51.168;4.154;2022-08-03T01:24:52;23.30;99.90
18682;DHT22;9471;51.168;4.154;2022-08-03T01:27:30;23.20;99.90
18682;DHT22;9471;51.168;4.154;2022-08-03T01:30:03;23.10;99.90
18682;DHT22;9471;51.168;4.154;2022-08-03T01:32:38;23.10;99.90
18682;DHT22;9471;51.168;4.154;2022-08-03T01:35:09;23.10;99.90
18682;DHT22;9471;51.168;4.154;2022-08-03T01:37:41;23.00;99.90
18682;DHT22;9471;51.168;4.154;2022-08-03T01:40:11;22.90;99.90
18682;DHT22;9471;51.168;4.154;2022-08-03T01:42:40;23.00;99.90
18682;DHT22;9471;51.168;4.154;2022-08-03T01:45:12;22.90;99.90
18682;DHT22;9471;51.168;4.154;2022-08-03T01:47:40;22.80;99.90
18682;DHT22;9471;51.168;4.154;2022-08-03T01:50:08;22.70;99.90
18682;DHT22;9471;51.168;4.154;2022-08-03T01:52:39;22.60;99.90
18682;DHT22;9471;51.168;4.154;2022-08-03T01:55:08;22.70;99.90
18682;DHT22;9471;51.168;4.154;2022-08-03T01:57:38;22.80;99.90
18682;DHT22;9471;51.168;4.154;2022-08-03T02:00:09;22.70;99.90
18682;DHT22;9471;51.168;4.154;2022-08-03T02:02:36;22.70;99.90
18682;DHT22;9471;51.168;4.154;2022-08-03T02:05:07;22.70;99.90
18682;DHT22;9471;51.168;4.154;2022-08-03T02:07:36;22.70;99.90
18682;DHT22;9471;51.168;4.154;2022-08-03T02:10:05;22.70;99.90
18682;DHT22;9471;51.168;4.154;2022-08-03T02:12:33;22.80;99.90
18682;DHT22;9471;51.168;4.154;2022-08-03T02:15:01;22.70;99.90
18682;DHT22;9471;51.168;4.154;2022-08-03T02:17:32;22.70;99.90
18682;DHT22;9471;51.168;4.154;2022-08-03T02:20:00;22.70;99.90
18682;DHT22;9471;51.168;4.154;2022-08-03T02:22:29;22.70;99.90
18682;DHT22;9471;51.168;4.154;2022-08-03T02:24:56;22.70;99.90
18682;DHT22;9471;51.168;4.154;2022-08-03T02:27:25;22.60;99.90
18682;DHT22;9471;51.168;4.154;2022-08-03T02:29:57;22.70;99.90
18682;DHT22;9471;51.168;4.154;2022-08-03T02:32:31;22.50;99.90
18682;DHT22;9471;51.168;4.154;2022-08-03T02:35:01;22.40;99.90
18682;DHT22;9471;51.168;4.154;2022-08-03T02:37:33;22.30;99.90
18682;DHT22;9471;51.168;4.154;2022-08-03T02:40:01;22.30;99.90
18682;DHT22;9471;51.168;4.154;2022-08-03T02:42:32;22.40;99.90
18682;DHT22;9471;51.168;4.154;2022-08-03T02:45:02;22.50;99.90
18682;DHT22;9471;51.168;4.154;2022-08-03T02:47:34;22.50;99.90
18682;DHT22;9471;51.168;4.154;2022-08-03T02:50:02;22.40;99.90
18682;DHT22;9471;51.168;4.154;2022-08-03T02:52:32;22.40;99.90
18682;DHT22;9471;51.168;4.154;2022-08-03T02:55:02;22.40;99.90
18682;DHT22;9471;51.168;4.154;2022-08-03T02:57:30;22.30;99.90
18682;DHT22;9471;51.168;4.154;2022-08-03T03:00:00;22.30;99.90
18682;DHT22;9471;51.168;4.154;2022-08-03T03:02:28;22.20;99.90
18682;DHT22;9471;51.168;4.154;2022-08-03T03:04:57;22.10;99.90
18682;DHT22;9471;51.168;4.154;2022-08-03T03:07:26;22.10;99.90
18682;DHT22;9471;51.168;4.154;2022-08-03T03:09:53;22.10;99.90
18682;DHT22;9471;51.168;4.154;2022-08-03T03:12:21;22.00;99.90
18682;DHT22;9471;51.168;4.154;2022-08-03T03:14:49;21.90;99.90
18682;DHT22;9471;51.168;4.154;2022-08-03T03:17:16;22.00;99.90
18682;DHT22;9471;51.168;4.154;2022-08-03T03:19:44;22.00;99.90
18682;DHT22;9471;51.168;4.154;2022-08-03T03:22:13;22.10;99.90
18682;DHT22;9471;51.168;4.154;2022-08-03T03:24:42;22.00;99.90
18682;DHT22;9471;51.168;4.154;2022-08-03T03:27:10;21.90;99.90
18682;DHT22;9471;51.168;4.154;2022-08-03T03:29:39;22.00;99.90
18682;DHT22;9471;51.168;4.154;2022-08-03T03:32:07;22.00;99.90
18682;DHT22;9471;51.168;4.154;2022-08-03T03:34:34;21.90;99.90
18682;DHT22;9471;51.168;4.154;2022-08-03T03:37:02;21.90;99.90
18682;DHT22;9471;51.168;4.154;2022-08-03T03:39:31;21.90;99.90
18682;DHT22;9471;51.168;4.154;2022-08-03T03:41:59;21.80;99.90
18682;DHT22;9471;51.168;4.154;2022-08-03T03:44:27;21.80;99.90
18682;DHT22;9471;51.168;4.154;2022-08-03T03:46:54;21.80;99.90
18682;DHT22;9471;51.168;4.154;2022-08-03T03:49:22;21.90;99.90
18682;DHT22;9471;51.168;4.154;2022-08-03T03:51:51;21.90;99.90
18682;DHT22;9471;51.168;4.154;2022-08-03T03:54:20;21.80;99.90
18682;DHT22;9471;51.168;4.154;2022-08-03T03:56:48;21.70;99.90
18682;DHT22;9471;51.168;4.154;2022-08-03T03:59:15;21.60;99.90
18682;DHT22;9471;51.168;4.154;2022-08-03T04:01:42;21.70;99.90
18682;DHT22;9471;51.168;4.154;2022-08-03T04:04:09;21.80;99.90
18682;DHT22;9471;51.168;4.154;2022-08-03T04:07:02;21.80;99.90
18682;DHT22;9471;51.168;4.154;2022-08-03T04:09:47;21.70;99.90
18682;DHT22;9471;51.168;4.154;2022-08-03T04:12:33;21.70;99.90
18682;DHT22;9471;51.168;4.154;2022-08-03T04:15:02;21.60;99.90
18682;DHT22;9471;51.168;4.154;2022-08-03T04:17:31;21.60;99.90
18682;DHT22;9471;51.168;4.154;2022-08-03T04:20:00;21.40;99.90
18682;DHT22;9471;51.168;4.154;2022-08-03T04:22:30;21.40;99.90
18682;DHT22;9471;51.168;4.154;2022-08-03T04:25:01;21.50;99.90
18682;DHT22;9471;51.168;4.154;2022-08-03T04:27:35;21.50;99.90
18682;DHT22;9471;51.168;4.154;2022-08-03T04:30:09;21.60;99.90
18682;DHT22;9471;51.168;4.154;2022-08-03T04:32:37;21.60;99.90
18682;DHT22;9471;51.168;4.154;2022-08-03T04:35:06;21.60;99.90
18682;DHT22;9471;51.168;4.154;2022-08-03T04:37:38;21.60;99.90
18682;DHT22;9471;51.168;4.154;2022-08-03T04:40:08;21.70;99.90
18682;DHT22;9471;51.168;4.154;2022-08-03T04:42:37;21.60;99.90
18682;DHT22;9471;51.168;4.154;2022-08-03T04:45:07;21.60;99.90
18682;DHT22;9471;51.168;4.154;2022-08-03T04:47:38;21.60;99.90
18682;DHT22;9471;51.168;4.154;2022-08-03T04:50:06;21.60;99.90
18682;DHT22;9471;51.168;4.154;2022-08-03T04:52:34;21.60;99.90
18682;DHT22;9471;51.168;4.154;2022-08-03T04:55:02;21.60;99.90
18682;DHT22;9471;51.168;4.154;2022-08-03T04:57:29;21.60;99.90
18682;DHT22;9471;51.168;4.154;2022-08-03T04:59:57;21.60;99.90
18682;DHT22;9471;51.168;4.154;2022-08-03T05:02:24;21.60;99.90
18682;DHT22;9471;51.168;4.154;2022-08-03T05:04:51;21.60;99.90
18682;DHT22;9471;51.168;4.154;2022-08-03T05:07:18;21.70;99.90
18682;DHT22;9471;51.168;4.154;2022-08-03T05:09:45;21.70;99.90
18682;DHT22;9471;51.168;4.154;2022-08-03T05:12:12;21.70;99.90
18682;DHT22;9471;51.168;4.154;2022-08-03T05:14:39;21.80;99.90
18682;DHT22;9471;51.168;4.154;2022-08-03T05:17:08;21.90;99.90
18682;DHT22;9471;51.168;4.154;2022-08-03T05:19:35;21.80;99.90
18682;DHT22;9471;51.168;4.154;2022-08-03T05:22:02;21.80;99.90
18682;DHT22;9471;51.168;4.154;2022-08-03T05:24:29;21.80;99.90
18682;DHT22;9471;51.168;4.154;2022-08-03T05:26:56;21.90;99.90
18682;DHT22;9471;51.168;4.154;2022-08-03T05:29:23;21.90;99.90
18682;DHT22;9471;51.168;4.154;2022-08-03T05:31:50;21.90;99.90
18682;DHT22;9471;51.168;4.154;2022-08-03T05:34:18;21.90;99.90
18682;DHT22;9471;51.168;4.154;2022-08-03T05:36:45;21.90;99.90
18682;DHT22;9471;51.168;4.154;2022-08-03T05:39:12;22.10;99.90
18682;DHT22;9471;51.168;4.154;2022-08-03T05:41:39;22.30;99.90
18682;DHT22;9471;51.168;4.154;2022-08-03T05:44:06;22.30;99.90
18682;DHT22;9471;51.168;4.154;2022-08-03T05:46:33;22.40;99.90
18682;DHT22;9471;51.168;4.154;2022-08-03T05:48:59;22.60;99.90
18682;DHT22;9471;51.168;4.154;2022-08-03T05:51:28;22.50;99.90
18682;DHT22;9471;51.168;4.154;2022-08-03T05:53:55;22.50;99.90
18682;DHT22;9471;51.168;4.154;2022-08-03T05:56:22;22.60;99.90
18682;DHT22;9471;51.168;4.154;2022-08-03T05:58:50;22.70;99.90
18682;DHT22;9471;51.168;4.154;2022-08-03T06:01:18;22.70;99.90
18682;DHT22;9471;51.168;4.154;2022-08-03T06:03:47;22.70;99.90
18682;DHT22;9471;51.168;4.154;2022-08-03T06:06:14;22.70;99.90
18682;DHT22;9471;51.168;4.154;2022-08-03T06:08:43;22.70;99.90
18682;DHT22;9471;51.168;4.154;2022-08-03T06:11:10;22.70;99.90
18682;DHT22;9471;51.168;4.154;2022-08-03T06:13:38;22.70;99.90
18682;DHT22;9471;51.168;4.154;2022-08-03T06:16:05;22.70;99.90
18682;DHT22;9471;51.168;4.154;2022-08-03T06:18:32;22.80;99.90
18682;DHT22;9471;51.168;4.154;2022-08-03T06:20:59;23.00;99.90
18682;DHT22;9471;51.168;4.154;2022-08-03T06:23:26;23.20;99.90
18682;DHT22;9471;51.168;4.154;2022-08-03T06:25:55;23.20;99.90
18682;DHT22;9471;51.168;4.154;2022-08-03T06:28:22;23.20;99.90
18682;DHT22;9471;51.168;4.154;2022-08-03T06:30:49;23.30;99.90
18682;DHT22;9471;51.168;4.154;2022-08-03T06:33:16;23.30;99.90
18682;DHT22;9471;51.168;4.154;2022-08-03T06:35:43;23.30;99.90
18682;DHT22;9471;51.168;4.154;2022-08-03T06:38:10;23.20;99.90
18682;DHT22;9471;51.168;4.154;2022-08-03T06:40:37;23.40;99.90
18682;DHT22;9471;51.168;4.154;2022-08-03T06:43:06;23.40;99.90
18682;DHT22;9471;51.168;4.154;2022-08-03T06:45:34;23.50;99.90
18682;DHT22;9471;51.168;4.154;2022-08-03T06:48:02;23.60;99.90
18682;DHT22;9471;51.168;4.154;2022-08-03T06:50:29;23.70;99.90
18682;DHT22;9471;51.168;4.154;2022-08-03T06:52:56;23.70;99.90
18682;DHT22;9471;51.168;4.154;2022-08-03T06:55:23;23.80;99.90
18682;DHT22;9471;51.168;4.154;2022-08-03T06:57:50;23.70;99.90
18682;DHT22;9471;51.168;4.154;2022-08-03T07:00:19;23.80;99.90
18682;DHT22;9471;51.168;4.154;2022-08-03T07:02:46;23.80;99.90
18682;DHT22;9471;51.168;4.154;2022-08-03T07:05:14;23.90;99.90
18682;DHT22;9471;51.168;4.154;2022-08-03T07:07:41;24.00;99.90
18682;DHT22;9471;51.168;4.154;2022-08-03T07:10:08;24.20;99.90
18682;DHT22;9471;51.168;4.154;2022-08-03T07:12:37;24.10;99.90
18682;DHT22;9471;51.168;4.154;2022-08-03T07:15:06;24.20;99.90
18682;DHT22;9471;51.168;4.154;2022-08-03T07:17:35;24.10;99.90
18682;DHT22;9471;51.168;4.154;2022-08-03T07:20:05;24.00;99.90
18682;DHT22;9471;51.168;4.154;2022-08-03T07:22:32;24.10;99.90
18682;DHT22;9471;51.168;4.154;2022-08-03T07:25:00;24.20;99.90
18682;DHT22;9471;51.168;4.154;2022-08-03T07:27:27;24.30;99.90
18682;DHT22;9471;51.168;4.154;2022-08-03T07:29:55;24.20;99.90
18682;DHT22;9471;51.168;4.154;2022-08-03T07:32:23;24.10;99.90
18682;DHT22;9471;51.168;4.154;2022-08-03T07:34:51;24.20;99.90
18682;DHT22;9471;51.168;4.154;2022-08-03T07:37:18;24.40;99.90
18682;DHT22;9471;51.168;4.154;2022-08-03T07:39:46;24.50;99.90
18682;DHT22;9471;51.168;4.154;2022-08-03T07:42:13;24.70;99.90
18682;DHT22;9471;51.168;4.154;2022-08-03T07:44:40;24.80;99.90
18682;DHT22;9471;51.168;4.154;2022-08-03T07:47:07;24.80;99.90
18682;DHT22;9471;51.168;4.154;2022-08-03T07:49:38;24.90;99.90
18682;DHT22;9471;51.168;4.154;2022-08-03T07:52:06;25.00;99.90
18682;DHT22;9471;51.168;4.154;2022-08-03T07:54:51;24.90;99.90
18682;DHT22;9471;51.168;4.154;2022-08-03T07:57:18;25.00;99.90
18682;DHT22;9471;51.168;4.154;2022-08-03T07:59:45;25.10;99.90
18682;DHT22;9471;51.168;4.154;2022-08-03T08:02:12;25.10;99.90
18682;DHT22;9471;51.168;4.154;2022-08-03T08:04:39;25.10;99.90
18682;DHT22;9471;51.168;4.154;2022-08-03T08:07:08;25.10;99.90
18682;DHT22;9471;51.168;4.154;2022-08-03T08:09:35;25.10;99.90
18682;DHT22;9471;51.168;4.154;2022-08-03T08:12:03;25.00;99.90
18682;DHT22;9471;51.168;4.154;2022-08-03T08:14:30;25.10;99.90
18682;DHT22;9471;51.168;4.154;2022-08-03T08:16:57;25.30;99.90
18682;DHT22;9471;51.168;4.154;2022-08-03T08:19:24;25.50;99.90
18682;DHT22;9471;51.168;4.154;2022-08-03T08:21:51;25.70;99.90
18682;DHT22;9471;51.168;4.154;2022-08-03T08:24:20;25.70;99.90
18682;DHT22;9471;51.168;4.154;2022-08-03T08:26:47;25.80;99.90
18682;DHT22;9471;51.168;4.154;2022-08-03T08:29:14;26.00;99.90
18682;DHT22;9471;51.168;4.154;2022-08-03T08:31:41;26.00;99.90
18682;DHT22;9471;51.168;4.154;2022-08-03T08:34:08;26.00;99.90
18682;DHT22;9471;51.168;4.154;2022-08-03T08:36:35;26.30;99.90
18682;DHT22;9471;51.168;4.154;2022-08-03T08:39:02;26.40;99.90
18682;DHT22;9471;51.168;4.154;2022-08-03T08:41:30;26.30;99.90
18682;DHT22;9471;51.168;4.154;2022-08-03T08:43:59;26.40;99.90
18682;DHT22;9471;51.168;4.154;2022-08-03T08:46:26;26.60;99.90
18682;DHT22;9471;51.168;4.154;2022-08-03T08:48:56;26.80;99.90
18682;DHT22;9471;51.168;4.154;2022-08-03T08:51:28;26.80;99.90
18682;DHT22;9471;51.168;4.154;2022-08-03T08:53:57;26.70;99.90
18682;DHT22;9471;51.168;4.154;2022-08-03T08:56:27;26.90;99.90
18682;DHT22;9471;51.168;4.154;2022-08-03T08:58:58;26.80;99.90
18682;DHT22;9471;51.168;4.154;2022-08-03T09:01:26;26.80;99.90
18682;DHT22;9471;51.168;4.154;2022-08-03T09:03:53;26.70;99.90
18682;DHT22;9471;51.168;4.154;2022-08-03T09:06:21;26.90;99.90
18682;DHT22;9471;51.168;4.154;2022-08-03T09:08:48;27.10;99.90
18682;DHT22;9471;51.168;4.154;2022-08-03T09:11:15;27.00;99.90
18682;DHT22;9471;51.168;4.154;2022-08-03T09:13:46;27.00;99.90
18682;DHT22;9471;51.168;4.154;2022-08-03T09:16:15;27.30;99.90
18682;DHT22;9471;51.168;4.154;2022-08-03T09:18:44;27.50;99.90
18682;DHT22;9471;51.168;4.154;2022-08-03T09:21:16;27.60;99.90
18682;DHT22;9471;51.168;4.154;2022-08-03T09:23:45;27.80;99.90
18682;DHT22;9471;51.168;4.154;2022-08-03T09:26:18;28.00;99.90
18682;DHT22;9471;51.168;4.154;2022-08-03T09:28:45;28.10;99.90
18682;DHT22;9471;51.168;4.154;2022-08-03T09:31:14;28.00;99.90
18682;DHT22;9471;51.168;4.154;2022-08-03T09:33:46;27.90;99.90
18682;DHT22;9471;51.168;4.154;2022-08-03T09:36:37;27.60;99.90
18682;DHT22;9471;51.168;4.154;2022-08-03T09:39:05;27.70;99.90
18682;DHT22;9471;51.168;4.154;2022-08-03T09:41:36;28.00;99.90
18682;DHT22;9471;51.168;4.154;2022-08-03T09:44:03;28.20;99.90
18682;DHT22;9471;51.168;4.154;2022-08-03T09:46:44;28.30;99.90
18682;DHT22;9471;51.168;4.154;2022-08-03T09:49:12;28.30;99.90
18682;DHT22;9471;51.168;4.154;2022-08-03T09:51:39;28.00;99.90
18682;DHT22;9471;51.168;4.154;2022-08-03T09:54:07;28.10;99.90
18682;DHT22;9471;51.168;4.154;2022-08-03T09:56:42;28.20;99.90
18682;DHT22;9471;51.168;4.154;2022-08-03T09:59:10;28.40;99.90
18682;DHT22;9471;51.168;4.154;2022-08-03T10:01:39;28.50;99.90
18682;DHT22;9471;51.168;4.154;2022-08-03T10:04:12;28.40;99.90
18682;DHT22;9471;51.168;4.154;2022-08-03T10:06:43;28.30;99.90
18682;DHT22;9471;51.168;4.154;2022-08-03T10:09:11;28.50;99.90
18682;DHT22;9471;51.168;4.154;2022-08-03T10:11:39;28.70;99.90
18682;DHT22;9471;51.168;4.154;2022-08-03T10:14:07;28.60;99.90
18682;DHT22;9471;51.168;4.154;2022-08-03T10:16:36;28.70;99.90
18682;DHT22;9471;51.168;4.154;2022-08-03T10:19:05;28.80;99.90
18682;DHT22;9471;51.168;4.154;2022-08-03T10:21:34;28.90;99.90
18682;DHT22;9471;51.168;4.154;2022-08-03T10:24:04;29.00;99.90
18682;DHT22;9471;51.168;4.154;2022-08-03T10:26:33;29.30;99.90
18682;DHT22;9471;51.168;4.154;2022-08-03T10:29:03;29.50;99.90
18682;DHT22;9471;51.168;4.154;2022-08-03T10:31:35;29.50;99.90
18682;DHT22;9471;51.168;4.154;2022-08-03T10:34:08;29.60;99.90
18682;DHT22;9471;51.168;4.154;2022-08-03T10:36:40;29.80;99.90
18682;DHT22;9471;51.168;4.154;2022-08-03T10:39:07;29.70;99.90
18682;DHT22;9471;51.168;4.154;2022-08-03T10:41:40;29.70;99.90
18682;DHT22;9471;51.168;4.154;2022-08-03T10:44:10;29.80;99.90
18682;DHT22;9471;51.168;4.154;2022-08-03T10:46:41;29.70;99.90
18682;DHT22;9471;51.168;4.154;2022-08-03T10:49:12;29.70;99.90
18682;DHT22;9471;51.168;4.154;2022-08-03T10:51:40;29.60;99.90
18682;DHT22;9471;51.168;4.154;2022-08-03T10:54:40;29.70;99.90
18682;DHT22;9471;51.168;4.154;2022-08-03T10:57:48;29.80;99.90
18682;DHT22;9471;51.168;4.154;2022-08-03T11:00:18;30.10;99.90
18682;DHT22;9471;51.168;4.154;2022-08-03T11:03:03;30.20;99.90
18682;DHT22;9471;51.168;4.154;2022-08-03T11:05:34;30.40;99.90
18682;DHT22;9471;51.168;4.154;2022-08-03T11:08:22;30.60;99.90
18682;DHT22;9471;51.168;4.154;2022-08-03T11:10:50;30.60;99.90
18682;DHT22;9471;51.168;4.154;2022-08-03T11:13:20;30.30;99.90
18682;DHT22;9471;51.168;4.154;2022-08-03T11:15:48;30.30;99.90
18682;DHT22;9471;51.168;4.154;2022-08-03T11:18:16;30.50;99.90
18682;DHT22;9471;51.168;4.154;2022-08-03T11:20:46;30.60;99.90
18682;DHT22;9471;51.168;4.154;2022-08-03T11:23:14;30.50;99.90
18682;DHT22;9471;51.168;4.154;2022-08-03T11:26:10;30.50;99.90
18682;DHT22;9471;51.168;4.154;2022-08-03T11:28:38;30.70;99.90
18682;DHT22;9471;51.168;4.154;2022-08-03T11:34:21;30.80;99.90
18682;DHT22;9471;51.168;4.154;2022-08-03T11:37:18;31.10;99.90
18682;DHT22;9471;51.168;4.154;2022-08-03T11:39:48;30.90;99.90
18682;DHT22;9471;51.168;4.154;2022-08-03T11:42:38;31.00;99.90
18682;DHT22;9471;51.168;4.154;2022-08-03T11:45:07;31.30;99.90
18682;DHT22;9471;51.168;4.154;2022-08-03T11:47:37;31.10;99.90
18682;DHT22;9471;51.168;4.154;2022-08-03T11:50:05;30.90;99.90
18682;DHT22;9471;51.168;4.154;2022-08-03T11:52:39;30.90;99.90
18682;DHT22;9471;51.168;4.154;2022-08-03T11:55:14;30.80;99.90
18682;DHT22;9471;51.168;4.154;2022-08-03T11:57:41;30.80;99.90
18682;DHT22;9471;51.168;4.154;2022-08-03T12:00:27;31.00;99.90
18682;DHT22;9471;51.168;4.154;2022-08-03T12:03:03;31.10;99.80
18682;DHT22;9471;51.168;4.154;2022-08-03T12:05:42;31.10;99.50
18682;DHT22;9471;51.168;4.154;2022-08-03T12:08:13;31.20;99.10
18682;DHT22;9471;51.168;4.154;2022-08-03T12:10:46;31.30;98.60
18682;DHT22;9471;51.168;4.154;2022-08-03T12:13:16;31.20;98.70
18682;DHT22;9471;51.168;4.154;2022-08-03T12:15:50;31.40;98.20
18682;DHT22;9471;51.168;4.154;2022-08-03T12:18:18;31.70;97.80
18682;DHT22;9471;51.168;4.154;2022-08-03T12:20:47;31.70;97.00
18682;DHT22;9471;51.168;4.154;2022-08-03T12:23:16;31.70;96.90
18682;DHT22;9471;51.168;4.154;2022-08-03T12:25:45;31.90;96.60
18682;DHT22;9471;51.168;4.154;2022-08-03T12:28:15;32.10;96.30
18682;DHT22;9471;51.168;4.154;2022-08-03T12:30:44;32.10;94.80
18682;DHT22;9471;51.168;4.154;2022-08-03T12:33:16;32.20;94.90
18682;DHT22;9471;51.168;4.154;2022-08-03T12:35:45;32.50;94.00
18682;DHT22;9471;51.168;4.154;2022-08-03T12:38:17;32.60;93.00
18682;DHT22;9471;51.168;4.154;2022-08-03T12:40:55;32.50;93.10
18682;DHT22;9471;51.168;4.154;2022-08-03T12:43:22;32.40;93.00
18682;DHT22;9471;51.168;4.154;2022-08-03T12:45:49;32.60;92.70
18682;DHT22;9471;51.168;4.154;2022-08-03T12:48:16;32.70;92.00
18682;DHT22;9471;51.168;4.154;2022-08-03T12:50:42;32.90;91.30
18682;DHT22;9471;51.168;4.154;2022-08-03T12:53:09;32.90;91.10
18682;DHT22;9471;51.168;4.154;2022-08-03T12:55:37;32.80;91.00
18682;DHT22;9471;51.168;4.154;2022-08-03T12:58:07;32.50;90.80
18682;DHT22;9471;51.168;4.154;2022-08-03T13:00:35;32.50;90.90
18682;DHT22;9471;51.168;4.154;2022-08-03T13:03:06;32.40;90.90
18682;DHT22;9471;51.168;4.154;2022-08-03T13:05:42;32.30;90.80
18682;DHT22;9471;51.168;4.154;2022-08-03T13:08:17;32.40;90.60
18682;DHT22;9471;51.168;4.154;2022-08-03T13:10:44;32.40;90.30
18682;DHT22;9471;51.168;4.154;2022-08-03T13:13:13;32.30;90.40
18682;DHT22;9471;51.168;4.154;2022-08-03T13:15:40;32.30;90.70
18682;DHT22;9471;51.168;4.154;2022-08-03T13:18:07;32.10;90.70
18682;DHT22;9471;51.168;4.154;2022-08-03T13:20:38;32.00;91.10
18682;DHT22;9471;51.168;4.154;2022-08-03T13:23:05;32.20;91.10
18682;DHT22;9471;51.168;4.154;2022-08-03T13:25:32;32.40;90.80
18682;DHT22;9471;51.168;4.154;2022-08-03T13:27:59;32.40;89.60
18682;DHT22;9471;51.168;4.154;2022-08-03T13:30:27;32.40;89.10
18682;DHT22;9471;51.168;4.154;2022-08-03T13:32:54;32.40;89.50
18682;DHT22;9471;51.168;4.154;2022-08-03T13:35:23;32.50;89.80
18682;DHT22;9471;51.168;4.154;2022-08-03T13:37:50;32.60;89.80
18682;DHT22;9471;51.168;4.154;2022-08-03T13:40:17;32.80;88.50
18682;DHT22;9471;51.168;4.154;2022-08-03T13:42:44;32.90;87.20
18682;DHT22;9471;51.168;4.154;2022-08-03T13:45:11;32.90;86.10
18682;DHT22;9471;51.168;4.154;2022-08-03T13:47:39;32.60;86.80
18682;DHT22;9471;51.168;4.154;2022-08-03T13:50:07;32.70;87.20
18682;DHT22;9471;51.168;4.154;2022-08-03T13:52:34;32.90;85.00
18682;DHT22;9471;51.168;4.154;2022-08-03T13:55:03;32.90;84.50
18682;DHT22;9471;51.168;4.154;2022-08-03T13:57:30;33.00;84.00
18682;DHT22;9471;51.168;4.154;2022-08-03T13:59:57;33.00;83.60
18682;DHT22;9471;51.168;4.154;2022-08-03T14:02:24;32.90;83.40
18682;DHT22;9471;51.168;4.154;2022-08-03T14:04:52;32.90;82.80
18682;DHT22;9471;51.168;4.154;2022-08-03T14:07:20;33.00;81.90
18682;DHT22;9471;51.168;4.154;2022-08-03T14:09:47;33.30;82.20
18682;DHT22;9471;51.168;4.154;2022-08-03T14:12:13;33.20;82.60
18682;DHT22;9471;51.168;4.154;2022-08-03T14:14:41;33.50;82.50
18682;DHT22;9471;51.168;4.154;2022-08-03T14:17:08;34.10;81.10
18682;DHT22;9471;51.168;4.154;2022-08-03T14:19:35;34.50;78.80
18682;DHT22;9471;51.168;4.154;2022-08-03T14:22:03;34.90;76.90
18682;DHT22;9471;51.168;4.154;2022-08-03T14:24:30;34.90;75.60
18682;DHT22;9471;51.168;4.154;2022-08-03T14:26:57;34.70;75.60
18682;DHT22;9471;51.168;4.154;2022-08-03T14:29:25;34.90;74.50
18682;DHT22;9471;51.168;4.154;2022-08-03T14:31:52;35.10;73.10
18682;DHT22;9471;51.168;4.154;2022-08-03T14:34:19;35.20;72.00
18682;DHT22;9471;51.168;4.154;2022-08-03T14:36:46;35.30;71.30
18682;DHT22;9471;51.168;4.154;2022-08-03T14:39:14;35.20;70.30
18682;DHT22;9471;51.168;4.154;2022-08-03T14:41:41;35.60;69.80
18682;DHT22;9471;51.168;4.154;2022-08-03T14:44:08;35.50;69.00
18682;DHT22;9471;51.168;4.154;2022-08-03T14:46:35;35.50;69.00
18682;DHT22;9471;51.168;4.154;2022-08-03T14:49:02;36.00;67.70
18682;DHT22;9471;51.168;4.154;2022-08-03T14:51:29;36.40;64.50
18682;DHT22;9471;51.168;4.154;2022-08-03T14:53:56;36.60;63.50
18682;DHT22;9471;51.168;4.154;2022-08-03T14:56:25;36.70;62.20
18682;DHT22;9471;51.168;4.154;2022-08-03T14:58:52;36.80;60.30
18682;DHT22;9471;51.168;4.154;2022-08-03T15:01:19;36.80;58.80
18682;DHT22;9471;51.168;4.154;2022-08-03T15:03:46;37.10;59.10
18682;DHT22;9471;51.168;4.154;2022-08-03T15:06:13;37.40;57.80
18682;DHT22;9471;51.168;4.154;2022-08-03T15:08:40;37.80;56.90
18682;DHT22;9471;51.168;4.154;2022-08-03T15:11:07;38.20;55.50
18682;DHT22;9471;51.168;4.154;2022-08-03T15:13:35;38.20;55.70
18682;DHT22;9471;51.168;4.154;2022-08-03T15:16:04;38.20;55.20
18682;DHT22;9471;51.168;4.154;2022-08-03T15:18:33;37.90;54.80
18682;DHT22;9471;51.168;4.154;2022-08-03T15:21:02;37.60;54.80
18682;DHT22;9471;51.168;4.154;2022-08-03T15:23:29;37.60;55.30
18682;DHT22;9471;51.168;4.154;2022-08-03T15:25:56;37.90;54.00
18682;DHT22;9471;51.168;4.154;2022-08-03T15:28:23;37.60;54.10
18682;DHT22;9471;51.168;4.154;2022-08-03T15:30:52;37.40;54.30
18682;DHT22;9471;51.168;4.154;2022-08-03T15:33:19;36.60;54.80
18682;DHT22;9471;51.168;4.154;2022-08-03T15:35:46;36.50;54.20
18682;DHT22;9471;51.168;4.154;2022-08-03T15:38:14;36.80;53.70
18682;DHT22;9471;51.168;4.154;2022-08-03T15:40:41;36.50;54.00
18682;DHT22;9471;51.168;4.154;2022-08-03T15:43:08;36.10;54.20
18682;DHT22;9471;51.168;4.154;2022-08-03T15:45:35;36.10;54.60
18682;DHT22;9471;51.168;4.154;2022-08-03T15:48:04;36.30;54.80
18682;DHT22;9471;51.168;4.154;2022-08-03T15:50:31;36.60;54.70
18682;DHT22;9471;51.168;4.154;2022-08-03T15:52:58;36.70;54.00
18682;DHT22;9471;51.168;4.154;2022-08-03T15:55:25;37.00;53.80
18682;DHT22;9471;51.168;4.154;2022-08-03T15:57:52;37.20;53.20
18682;DHT22;9471;51.168;4.154;2022-08-03T16:00:19;37.80;52.50
18682;DHT22;9471;51.168;4.154;2022-08-03T16:02:46;38.10;51.60